Time;durP1;ratioP1;P1;durP2;ratioP2;P2;SDS_P1;SDS_P2;PMS_P1;PMS_P2;Temp;Humidity;BMP_temperature;BMP_pressure;BME280_temperature;BME280_humidity;BME280_pressure;Samples;Min_cycle;Max_cycle;Signal;HPM_P1;HPM_P2
2023/05/23 05:02:25;;;;;;;;;3.33;3.33;;;;;17.30;60.67;4149.31;6305535;22;46919;-84
2023/05/23 05:05:26;;;;;;;;;5.00;3.33;;;;;18.63;60.45;3827.78;6333503;22;46186;-84
2023/05/23 05:32:56;;;;;;;;;5.00;3.00;;;;;17.71;61.33;451.81;6270549;22;46993;-84
2023/05/23 05:35:22;;;;;;;;;3.67;3.67;;;;;18.59;61.30;120.16;6366919;22;45727;-85
2023/05/23 05:46:10;;;;;;;;;3.00;3.00;;;;;17.76;61.43;-1566.00;6321293;22;68075;-87
2023/05/23 06:07:24;;;;;;;;;5.33;4.00;;;;;17.16;61.77;-2911.16;6303282;22;45343;-84
2023/05/23 06:10:02;;;;;;;;;2.33;2.33;;;;;16.99;62.16;-3582.66;6300689;22;45346;-88
2023/05/23 06:25:35;;;;;;;;;5.00;5.00;;;;;17.13;62.08;-4589.84;6338179;22;45871;-92
2023/05/23 06:28:01;;;;;;;;;3.33;3.33;;;;;17.93;62.35;-5263.66;6361525;22;47012;-87
2023/05/23 06:30:28;;;;;;;;;4.00;4.00;;;;;18.55;61.99;-5265.63;6364499;22;45314;-86
2023/05/23 06:32:53;;;;;;;;;5.67;5.00;;;;;18.56;62.35;-5602.00;6367125;22;45338;-87
2023/05/23 06:35:18;;;;;;;;;5.00;5.00;;;;;18.56;62.30;-5602.00;6365251;22;45558;-84
2023/05/23 06:38:13;;;;;;;;;3.33;3.00;;;;;17.42;62.61;-5933.50;6366476;22;47062;-87
2023/05/23 06:40:54;;;;;;;;;5.00;3.33;;;;;17.85;62.63;-5935.31;6252149;22;45441;-90
2023/05/23 07:14:15;;;;;;;;;5.00;5.00;;;;;17.08;62.60;-7944.66;6335869;22;45342;-88
2023/05/23 07:23:36;;;;;;;;;4.00;3.00;;;;;17.31;62.43;-7946.34;6336400;22;45812;-86
2023/05/23 07:36:36;;;;;;;;;4.00;4.00;;;;;18.17;62.56;-8288.66;6304430;22;45508;-87
2023/05/23 07:39:20;;;;;;;;;3.00;3.00;;;;;18.14;62.66;-8288.47;6366962;22;45417;-87
2023/05/23 08:25:17;;;;;;;;;3.67;3.67;;;;;18.80;63.67;-12326.34;6337220;22;45453;-85
2023/05/23 08:27:49;;;;;;;;;4.33;3.67;;;;;17.30;63.50;-12304.75;6336672;22;45316;-88
2023/05/23 08:30:14;;;;;;;;;4.00;3.00;;;;;17.37;63.62;-12640.88;6336241;22;45433;-87
2023/05/23 08:32:43;;;;;;;;;4.67;4.00;;;;;17.36;63.70;-12640.66;6336300;22;45491;-87
2023/05/23 08:35:49;;;;;;;;;5.67;5.67;;;;;18.80;64.35;-13333.84;6335140;22;45471;-86
2023/05/23 08:44:53;;;;;;;;;6.00;6.00;;;;;17.29;64.01;-13309.69;6209542;22;45438;-87
2023/05/23 08:48:01;;;;;;;;;9.33;6.33;;;;;17.25;64.07;-13309.13;6208855;22;45489;-85
2023/05/23 08:50:51;;;;;;;;;7.00;5.67;;;;;18.84;63.83;-13670.31;6185326;22;45628;-86
2023/05/23 09:29:06;;;;;;;;;1.67;1.67;;;;;18.59;64.03;-14001.69;6359818;22;74317;-89
2023/05/23 09:31:32;;;;;;;;;4.67;4.67;;;;;18.81;63.61;-14005.47;6367806;22;45373;-88
2023/05/23 09:33:58;;;;;;;;;4.00;4.00;;;;;18.83;64.05;-14341.63;6368667;22;45572;-88
2023/05/23 09:36:28;;;;;;;;;4.33;3.00;;;;;18.65;63.63;-14002.84;6339996;22;45378;-89
2023/05/23 09:38:54;;;;;;;;;8.00;6.00;;;;;18.70;63.97;-14339.38;6367872;22;46114;-89
2023/05/23 09:41:20;;;;;;;;;4.33;4.33;;;;;18.69;63.74;-14003.44;6339740;22;45281;-89
2023/05/23 09:43:53;;;;;;;;;6.00;6.00;;;;;18.78;63.55;-14005.03;6339684;22;45399;-89
2023/05/23 09:46:20;;;;;;;;;4.33;4.33;;;;;18.77;63.88;-14004.84;6340101;22;45582;-88
2023/05/23 09:48:50;;;;;;;;;4.67;4.67;;;;;18.97;63.79;-14008.25;6339099;22;48197;-91
2023/05/23 09:51:20;;;;;;;;;6.00;5.33;;;;;19.01;63.77;-14008.94;6367931;22;45314;-90
2023/05/23 09:53:46;;;;;;;;;4.33;4.33;;;;;18.94;63.37;-14343.59;6340198;22;45350;-90
2023/05/23 09:56:12;;;;;;;;;4.33;4.33;;;;;18.54;63.73;-14001.00;6368263;22;45399;-91
2023/05/23 09:58:39;;;;;;;;;4.33;4.33;;;;;19.06;63.20;-14345.59;6367916;22;46518;-90
2023/05/23 10:01:08;;;;;;;;;2.67;2.67;;;;;18.94;63.21;-14007.81;6367852;22;45619;-91
2023/05/23 10:03:43;;;;;;;;;3.67;3.67;;;;;19.25;63.45;-14348.91;6367938;22;45337;-91
2023/05/23 10:06:30;;;;;;;;;5.00;5.00;;;;;19.26;63.54;-14349.19;6367643;22;45421;-90
2023/05/23 10:09:01;;;;;;;;;6.00;6.00;;;;;19.28;63.05;-14013.47;6367576;22;45508;-91
2023/05/23 10:11:35;;;;;;;;;6.00;5.00;;;;;19.27;63.33;-14013.31;6367907;22;45319;-90
2023/05/23 10:14:09;;;;;;;;;3.67;3.67;;;;;19.20;63.33;-14012.16;6339678;22;45771;-90
2023/05/23 10:17:02;;;;;;;;;4.33;4.33;;;;;19.21;63.02;-14012.34;6368479;22;45487;-91
2023/05/23 10:19:46;;;;;;;;;7.00;6.00;;;;;19.19;63.49;-14012.00;6367628;22;46414;-90
2023/05/23 10:22:14;;;;;;;;;5.00;5.00;;;;;18.95;63.41;-13672.16;6342009;22;45333;-91
2023/05/23 10:24:40;;;;;;;;;4.00;4.00;;;;;19.13;63.08;-13675.03;6368549;22;45405;-90
2023/05/23 10:27:06;;;;;;;;;5.00;5.00;;;;;19.11;63.35;-13674.69;6340558;22;45718;-90
2023/05/23 10:29:35;;;;;;;;;3.67;3.67;;;;;18.85;63.15;-13670.38;6368143;22;46202;-91
2023/05/23 10:32:04;;;;;;;;;5.33;3.67;;;;;18.88;63.41;-13670.91;6367374;22;45319;-91
2023/05/23 10:34:29;;;;;;;;;5.00;3.00;;;;;19.08;63.47;-13674.28;6338896;22;45475;-91
2023/05/23 10:37:02;;;;;;;;;7.00;5.00;;;;;18.88;62.87;-13670.91;6339599;22;45388;-92
2023/05/23 10:40:00;;;;;;;;;4.00;2.67;;;;;19.10;63.35;-13674.53;6339444;22;47228;-91
2023/05/23 10:43:02;;;;;;;;;3.33;3.33;;;;;19.14;62.85;-13675.19;6339006;22;45939;-92
2023/05/23 10:45:28;;;;;;;;;3.33;3.33;;;;;18.86;62.99;-13334.84;6367988;22;45317;-91
2023/05/23 10:47:53;;;;;;;;;5.00;5.00;;;;;18.84;62.73;-13334.50;6339283;22;45415;-92
2023/05/23 10:50:33;;;;;;;;;5.00;4.00;;;;;18.93;62.78;-13335.91;6367137;22;46375;-91
2023/05/23 10:53:01;;;;;;;;;4.67;4.67;;;;;19.10;62.71;-13338.59;6369017;22;45253;-92
2023/05/23 10:55:31;;;;;;;;;4.00;4.00;;;;;18.92;62.58;-12999.94;6368386;22;45351;-90
2023/05/23 10:58:14;;;;;;;;;4.00;4.00;;;;;19.29;62.56;-13005.63;6368232;22;45499;-91
2023/05/23 11:00:50;;;;;;;;;5.00;3.33;;;;;19.07;62.25;-12666.19;6367397;22;45484;-90
2023/05/23 11:03:16;;;;;;;;;6.00;3.67;;;;;19.26;62.04;-12669.00;6367167;22;45331;-91
2023/05/23 11:05:51;;;;;;;;;5.33;5.33;;;;;19.18;62.29;-12667.84;6367823;22;45349;-90
2023/05/23 11:08:19;;;;;;;;;5.00;4.33;;;;;19.26;62.40;-12669.06;6368187;22;45448;-90
2023/05/23 11:11:11;;;;;;;;;6.00;5.33;;;;;19.33;62.40;-12333.91;6338677;22;47402;-91
2023/05/23 11:13:51;;;;;;;;;5.67;5.67;;;;;19.35;62.02;-12334.22;6334114;22;45392;-90
2023/05/23 11:16:26;;;;;;;;;7.33;6.00;;;;;19.34;61.90;-12334.13;6338748;22;45333;-90
2023/05/23 11:19:16;;;;;;;;;4.33;4.33;;;;;19.43;62.17;-12335.38;6339511;22;45405;-91
2023/05/23 11:21:43;;;;;;;;;5.00;4.67;;;;;19.22;61.99;-12332.38;6369548;22;46639;-91
2023/05/23 11:24:09;;;;;;;;;5.00;3.67;;;;;19.53;61.88;-12336.84;6368101;22;45375;-90
2023/05/23 11:26:34;;;;;;;;;4.00;4.00;;;;;19.33;61.56;-12333.91;6368499;22;45325;-90
2023/05/23 11:29:02;;;;;;;;;8.67;8.67;;;;;19.69;61.62;-12339.13;6340469;22;45354;-91
2023/05/23 11:31:28;;;;;;;;;3.67;3.67;;;;;19.34;61.90;-12670.22;6368421;22;45377;-91
2023/05/23 11:33:54;;;;;;;;;3.33;3.33;;;;;19.87;61.48;-12678.06;6367726;22;45460;-91
2023/05/23 11:36:22;;;;;;;;;4.00;4.00;;;;;20.18;61.29;-13019.25;6368857;22;45294;-90
2023/05/23 11:38:52;;;;;;;;;6.00;5.33;;;;;20.23;61.04;-13356.69;6368191;22;45763;-90
2023/05/23 11:41:18;;;;;;;;;4.33;3.33;;;;;20.62;60.75;-13362.88;6367282;22;45525;-91
2023/05/23 11:43:50;;;;;;;;;2.00;2.00;;;;;20.85;60.88;-13366.47;6367442;22;45618;-90
2023/05/23 11:46:16;;;;;;;;;4.67;4.67;;;;;20.72;60.48;-13027.53;6338967;22;45332;-90
2023/05/23 11:48:45;;;;;;;;;3.00;3.00;;;;;20.94;59.78;-12357.00;6368617;22;45484;-91
2023/05/23 11:51:11;;;;;;;;;5.33;4.00;;;;;20.60;59.50;-12015.31;6368397;22;46580;-90
2023/05/23 11:53:37;;;;;;;;;4.33;3.67;;;;;20.65;59.40;-11679.03;6367341;22;45574;-91
2023/05/23 11:56:03;;;;;;;;;3.67;3.67;;;;;20.58;59.77;-11341.25;6367164;22;45444;-91
2023/05/23 11:58:30;;;;;;;;;3.00;3.00;;;;;20.59;59.77;-11341.31;6368012;22;45626;-92
2023/05/23 12:01:09;;;;;;;;;4.00;3.00;;;;;20.60;59.32;-11341.50;6336576;22;47163;-90
2023/05/23 12:03:45;;;;;;;;;3.00;3.00;;;;;20.95;59.76;-11345.94;6364387;22;45309;-90
2023/05/23 12:06:13;;;;;;;;;3.33;3.33;;;;;20.78;59.50;-11343.78;6364587;22;45652;-91
2023/05/23 12:08:38;;;;;;;;;4.00;4.00;;;;;21.01;58.96;-11346.63;6365863;22;45346;-91
2023/05/23 12:11:05;;;;;;;;;6.00;4.00;;;;;20.97;58.69;-11009.03;6337783;22;47313;-90
2023/05/23 12:13:30;;;;;;;;;5.00;3.00;;;;;20.99;58.68;-11009.28;6337620;22;45361;-90
2023/05/23 12:15:57;;;;;;;;;2.00;2.00;;;;;21.14;58.51;-10336.47;6364293;22;45405;-90
2023/05/23 12:18:22;;;;;;;;;4.00;3.00;;;;;21.17;58.58;-10336.81;6338652;22;45369;-91
2023/05/23 12:20:51;;;;;;;;;4.67;4.00;;;;;20.77;58.77;-9995.34;6338226;22;47684;-91
2023/05/23 12:23:27;;;;;;;;;3.00;3.00;;;;;20.97;58.16;-9660.13;6366084;22;45661;-90
2023/05/23 12:25:54;;;;;;;;;4.67;3.00;;;;;21.10;58.42;-9324.06;6367251;22;45336;-90
2023/05/23 12:28:21;;;;;;;;;3.33;2.33;;;;;20.75;58.77;-8983.56;6367546;22;45656;-91
2023/05/23 12:30:48;;;;;;;;;1.00;1.00;;;;;20.77;58.52;-8983.78;6336427;22;46829;-90
2023/05/23 12:33:13;;;;;;;;;3.00;3.00;;;;;20.77;57.91;-8983.75;6338183;22;45345;-91
2023/05/23 12:35:45;;;;;;;;;3.00;2.00;;;;;21.18;58.11;-9324.88;6338943;22;45685;-92
2023/05/23 12:38:16;;;;;;;;;2.67;2.67;;;;;21.25;57.94;-9325.50;6368557;22;45457;-91
2023/05/23 12:40:41;;;;;;;;;2.00;2.00;;;;;21.08;58.34;-9323.94;6366528;22;45651;-91
2023/05/23 12:43:08;;;;;;;;;1.67;1.67;;;;;21.18;58.16;-9324.81;6338165;22;45435;-91
2023/05/23 12:45:35;;;;;;;;;2.33;2.33;;;;;21.58;57.75;-8990.94;6367409;22;45270;-90
2023/05/23 12:48:07;;;;;;;;;4.33;4.00;;;;;21.50;57.57;-8990.31;6367696;22;45373;-89
2023/05/23 12:50:33;;;;;;;;;3.67;1.67;;;;;21.39;57.49;-8651.72;6367459;22;45798;-91
2023/05/23 12:52:58;;;;;;;;;5.00;3.00;;;;;21.84;56.65;-8655.47;6366547;22;45325;-91
2023/05/23 12:55:24;;;;;;;;;3.00;3.00;;;;;21.83;56.93;-8655.41;6368226;22;45308;-90
2023/05/23 12:57:49;;;;;;;;;2.33;2.33;;;;;21.83;56.04;-7979.72;6368949;22;45304;-91
2023/05/23 13:00:15;;;;;;;;;3.33;3.00;;;;;21.73;56.24;-7978.94;6367908;22;46241;-91
2023/05/23 13:02:40;;;;;;;;;2.00;2.00;;;;;21.63;56.23;-7978.25;6368751;22;45380;-91
2023/05/23 13:05:06;;;;;;;;;3.00;3.00;;;;;22.11;55.99;-7643.66;6368953;22;45590;-90
2023/05/23 13:07:32;;;;;;;;;2.67;2.67;;;;;22.09;55.68;-6967.41;6369218;22;45382;-91
2023/05/23 13:09:58;;;;;;;;;4.67;2.33;;;;;22.30;55.63;-6292.06;6367927;22;46671;-91
2023/05/23 13:12:23;;;;;;;;;2.00;2.00;;;;;22.33;55.49;-5953.88;6369253;22;45640;-91
2023/05/23 13:14:49;;;;;;;;;1.67;1.67;;;;;22.26;54.50;-5615.28;6368808;22;45377;-91
2023/05/23 13:17:15;;;;;;;;;2.00;2.00;;;;;22.33;54.06;-4938.75;6342039;22;45449;-91
2023/05/23 13:19:41;;;;;;;;;1.00;1.00;;;;;22.39;53.82;-3923.41;6369180;22;46629;-91
2023/05/23 13:22:09;;;;;;;;;3.33;3.33;;;;;22.49;53.90;-3923.50;6368400;22;45716;-91
2023/05/23 13:24:36;;;;;;;;;2.00;2.00;;;;;22.40;54.31;-3584.84;6341094;22;45369;-91
2023/05/23 13:27:02;;;;;;;;;2.00;2.00;;;;;22.52;54.18;-3584.88;6368462;22;45333;-91
2023/05/23 13:29:27;;;;;;;;;5.00;4.00;;;;;22.44;54.02;-3246.25;6339212;22;47934;-91
2023/05/23 13:31:52;;;;;;;;;5.67;2.67;;;;;22.40;53.44;-2907.63;6368294;22;45346;-91
2023/05/23 13:34:18;;;;;;;;;2.67;2.33;;;;;22.40;54.02;-2907.63;6339761;22;45404;-91
2023/05/23 13:36:43;;;;;;;;;2.00;2.00;;;;;22.22;53.68;-2569.22;6368929;22;45318;-90
2023/05/23 13:39:08;;;;;;;;;2.33;2.33;;;;;22.55;54.08;-2568.78;6368419;22;45601;-91
2023/05/23 13:41:34;;;;;;;;;4.33;3.33;;;;;22.55;53.37;-2230.03;6368285;22;45783;-91
2023/05/23 13:43:59;;;;;;;;;3.67;3.33;;;;;22.63;53.12;-2229.88;6368136;22;45649;-91
2023/05/23 13:46:25;;;;;;;;;3.00;3.00;;;;;22.52;53.10;-2230.06;6369631;22;45412;-91
2023/05/23 13:48:50;;;;;;;;;3.00;2.33;;;;;22.84;53.41;-1890.53;6372494;22;45416;-92
2023/05/23 13:51:15;;;;;;;;;4.67;4.67;;;;;22.90;53.09;-1551.38;6340977;22;45392;-91
2023/05/23 13:53:40;;;;;;;;;3.00;3.00;;;;;22.66;52.94;-1213.16;6369072;22;45314;-91
2023/05/23 13:56:06;;;;;;;;;2.00;2.00;;;;;22.64;53.05;-874.34;6369925;22;45492;-91
2023/05/23 13:58:31;;;;;;;;;2.00;2.00;;;;;22.95;52.95;-873.06;6369210;22;45398;-91
2023/05/23 14:00:57;;;;;;;;;2.00;2.00;;;;;22.77;52.52;-534.75;6369650;22;45697;-93
2023/05/23 14:03:23;;;;;;;;;3.33;3.33;;;;;22.66;52.88;142.78;6368576;22;45829;-92
2023/05/23 14:05:48;;;;;;;;;2.00;2.00;;;;;22.45;52.95;141.56;6369051;22;45409;-91
2023/05/23 14:08:14;;;;;;;;;3.00;3.00;;;;;22.67;53.05;821.00;6368086;22;46263;-91
2023/05/23 14:10:40;;;;;;;;;3.67;3.00;;;;;22.76;52.36;1839.22;6368495;22;45378;-91
2023/05/23 14:13:06;;;;;;;;;3.00;1.67;;;;;22.74;52.83;1839.03;6368033;22;45282;-91
2023/05/23 14:15:32;;;;;;;;;3.67;3.67;;;;;22.46;52.91;1836.66;6341647;22;45421;-91
2023/05/23 14:17:58;;;;;;;;;4.00;2.67;;;;;22.40;52.05;2175.22;6371108;22;45587;-91
2023/05/23 14:20:23;;;;;;;;;4.00;3.00;;;;;22.01;52.09;2510.72;6368781;22;45639;-91
2023/05/23 14:22:49;;;;;;;;;3.00;3.00;;;;;22.53;52.69;2176.44;6368954;22;45348;-90
2023/05/23 14:25:16;;;;;;;;;2.00;2.00;;;;;22.67;52.30;2516.94;6341327;22;45670;-92
2023/05/23 14:27:41;;;;;;;;;3.00;3.00;;;;;22.76;52.44;2517.78;6369145;22;45372;-91
2023/05/23 14:30:07;;;;;;;;;2.67;2.67;;;;;22.42;51.99;2853.66;6368732;22;45337;-91
2023/05/23 14:32:37;;;;;;;;;3.67;3.67;;;;;22.36;52.64;3192.19;6368630;22;45385;-91
2023/05/23 14:35:04;;;;;;;;;1.67;1.67;;;;;22.65;52.08;3873.91;6340785;22;45490;-92
2023/05/23 14:37:29;;;;;;;;;2.00;2.00;;;;;22.67;51.87;4552.97;6368594;22;46064;-92
2023/05/23 14:39:55;;;;;;;;;3.00;3.00;;;;;22.35;52.21;4548.94;6369084;22;45579;-92
2023/05/23 14:42:20;;;;;;;;;2.00;2.00;;;;;22.26;51.75;4887.00;6340296;22;45666;-92
2023/05/23 14:44:45;;;;;;;;;2.00;2.00;;;;;22.30;51.66;5226.91;6343476;22;45832;-93
2023/05/23 14:47:11;;;;;;;;;2.67;2.67;;;;;22.33;51.68;5905.94;6343595;22;48173;-92
2023/05/23 14:49:36;;;;;;;;;2.00;2.00;;;;;22.26;51.76;6244.22;6368694;22;45650;-92
2023/05/23 14:52:01;;;;;;;;;4.00;2.67;;;;;22.30;51.56;6584.25;6369813;22;45485;-91
2023/05/23 14:54:27;;;;;;;;;1.67;0.00;;;;;22.49;51.30;6926.81;6341116;22;45425;-90
2023/05/23 14:56:52;;;;;;;;;2.67;2.00;;;;;22.21;51.21;6922.25;6338174;22;48126;-91
2023/05/23 14:59:17;;;;;;;;;2.33;2.33;;;;;22.22;51.36;7601.22;6336306;22;45423;-89
2023/05/23 15:01:43;;;;;;;;;2.67;2.67;;;;;22.30;51.12;7942.25;6368347;22;45716;-89
2023/05/23 15:04:08;;;;;;;;;1.67;1.67;;;;;21.87;51.46;8613.06;6340276;22;45382;-91
2023/05/23 15:06:33;;;;;;;;;3.50;2.00;;;;;22.23;50.71;9299.09;6368302;22;46442;-90
2023/05/23 15:08:59;;;;;;;;;2.33;2.33;;;;;22.08;50.71;9296.09;6368449;22;45365;-92
2023/05/23 15:11:24;;;;;;;;;2.00;2.00;;;;;22.14;50.96;9636.91;6368262;22;45361;-91
2023/05/23 15:13:50;;;;;;;;;1.67;1.67;;;;;22.22;50.73;9978.28;6368703;22;45290;-89
2023/05/23 15:16:17;;;;;;;;;1.33;1.33;;;;;22.33;50.87;9980.56;6339472;22;46236;-90
2023/05/23 15:18:42;;;;;;;;;0.67;0.67;;;;;22.02;50.79;10313.50;6367663;22;45386;-90
2023/05/23 15:21:08;;;;;;;;;3.00;3.00;;;;;22.02;51.11;10653.22;6367688;22;45665;-90
2023/05/23 15:23:33;;;;;;;;;2.00;2.00;;;;;22.23;51.28;10657.78;6368390;22;45269;-91
2023/05/23 15:25:58;;;;;;;;;3.00;2.00;;;;;21.97;50.72;11331.31;6336682;22;46706;-91
2023/05/23 15:28:24;;;;;;;;;2.00;2.00;;;;;22.22;50.62;12356.59;6366627;22;45333;-90
2023/05/23 15:30:49;;;;;;;;;3.00;3.00;;;;;21.98;50.39;13030.09;6368013;22;45714;-89
2023/05/23 15:33:15;;;;;;;;;1.33;1.33;;;;;21.85;50.53;13706.44;6368485;22;45406;-90
2023/05/23 15:35:40;;;;;;;;;1.33;1.33;;;;;21.90;50.45;14387.41;6367286;22;46007;-90
2023/05/23 15:38:06;;;;;;;;;2.67;0.67;;;;;22.14;50.32;14394.34;6367541;22;45678;-90
2023/05/23 15:40:31;;;;;;;;;1.00;1.00;;;;;22.20;50.41;14395.81;6368002;22;45366;-89
2023/05/23 15:42:56;;;;;;;;;2.00;2.00;;;;;22.02;50.12;15070.69;6368606;22;45769;-91
2023/05/23 15:45:22;;;;;;;;;1.00;1.00;;;;;21.75;50.30;15062.88;6338045;22;48216;-91
2023/05/23 15:47:47;;;;;;;;;2.00;2.00;;;;;21.73;50.01;15401.97;6367594;22;45650;-90
2023/05/23 15:50:12;;;;;;;;;2.00;1.00;;;;;21.98;50.24;16089.75;6367444;22;45774;-89
2023/05/23 15:52:38;;;;;;;;;2.00;1.00;;;;;21.67;50.10;16420.13;6368344;22;45461;-89
2023/05/23 15:55:04;;;;;;;;;1.25;1.25;;;;;21.86;49.50;17446.22;6367599;22;45880;-89
2023/05/23 15:57:31;;;;;;;;;0.75;0.75;;;;;21.69;49.95;17440.59;6337441;22;45349;-89
2023/05/23 15:59:56;;;;;;;;;1.00;1.00;;;;;21.71;49.17;19482.13;6370075;22;45421;-88
2023/05/23 16:02:23;;;;;;;;;2.00;1.00;;;;;21.69;49.40;20162.06;6369348;22;45350;-89
2023/05/23 16:04:48;;;;;;;;;0.67;0.67;;;;;21.64;49.58;20500.41;6339838;22;47552;-88
2023/05/23 16:07:13;;;;;;;;;1.00;1.00;;;;;21.54;49.49;21176.81;6367625;22;45317;-88
2023/05/23 16:09:39;;;;;;;;;1.00;1.00;;;;;21.57;49.30;21858.69;6340509;22;45669;-89
2023/05/23 16:12:05;;;;;;;;;1.00;1.00;;;;;21.47;48.91;22535.44;6368354;22;45546;-89
2023/05/23 16:14:30;;;;;;;;;1.67;0.33;;;;;21.31;49.14;22528.88;6338440;22;48158;-89
2023/05/23 16:16:56;;;;;;;;;2.00;0.25;;;;;21.60;49.75;22540.94;6338891;22;45379;-89
2023/05/23 16:19:21;;;;;;;;;2.67;1.00;;;;;21.06;49.38;23879.31;6366704;22;45350;-88
2023/05/23 16:21:46;;;;;;;;;0.00;0.00;;;;;21.29;49.33;23208.63;6366947;22;45418;-89
2023/05/23 16:24:12;;;;;;;;;1.00;1.00;;;;;21.32;49.22;22869.38;6365491;22;45525;-88
2023/05/23 16:26:39;;;;;;;;;1.00;1.00;;;;;21.30;49.80;22868.75;6363100;22;45735;-89
2023/05/23 16:29:06;;;;;;;;;1.00;1.00;;;;;21.34;49.80;23210.78;6366897;22;45506;-88
2023/05/23 16:31:31;;;;;;;;;0.67;0.67;;;;;21.44;49.79;23215.16;6340221;22;45519;-88
2023/05/23 16:33:58;;;;;;;;;1.00;1.00;;;;;21.32;49.11;23890.44;6368064;22;45960;-89
2023/05/23 16:36:23;;;;;;;;;0.00;0.00;;;;;21.51;49.86;23898.91;6367514;22;45414;-88
2023/05/23 16:38:48;;;;;;;;;0.67;0.67;;;;;20.97;49.36;24896.31;6368854;22;45401;-88
2023/05/23 16:41:14;;;;;;;;;0.33;0.33;;;;;21.31;49.26;25252.06;6340488;22;45657;-88
2023/05/23 16:43:39;;;;;;;;;1.00;0.00;;;;;21.10;49.38;25582.66;6333062;22;48106;-86
2023/05/23 16:46:05;;;;;;;;;1.00;1.00;;;;;20.92;49.70;25914.72;6366923;22;45683;-89
2023/05/23 16:48:30;;;;;;;;;1.00;1.00;;;;;20.87;48.94;26593.31;6367453;22;45631;-92
2023/05/23 16:50:56;;;;;;;;;0.33;0.33;;;;;20.81;49.33;26930.75;6342193;22;45275;-92
2023/05/23 16:53:22;;;;;;;;;0.67;0.67;;;;;20.80;49.38;27611.34;6337330;22;48183;-91
2023/05/23 16:55:48;;;;;;;;;1.00;1.00;;;;;20.68;49.28;27945.41;6339361;22;45409;-93
2023/05/23 16:58:13;;;;;;;;;2.67;2.00;;;;;20.38;49.05;28611.34;6339018;22;45504;-90
2023/05/23 17:00:38;;;;;;;;;0.33;0.33;;;;;20.57;49.42;28631.69;6367915;22;45756;-89
2023/05/23 17:03:04;;;;;;;;;1.00;1.00;;;;;20.70;49.19;29308.59;6367305;22;45630;-88
2023/05/23 17:05:32;;;;;;;;;1.00;1.00;;;;;21.04;49.15;29494.19;6338770;22;45674;-87
2023/05/23 17:07:57;;;;;;;;;1.00;1.00;;;;;21.02;48.84;30145.09;6339342;22;45262;-87
2023/05/23 17:10:23;;;;;;;;;1.00;1.00;;;;;21.01;48.92;30791.53;6368214;22;45322;-87
2023/05/23 17:12:48;;;;;;;;;2.00;2.00;;;;;20.98;49.14;31136.03;6367324;22;46327;-88
2023/05/23 17:15:14;;;;;;;;;1.67;1.00;;;;;20.95;48.70;31219.53;6367680;22;45613;-88
2023/05/23 17:17:39;;;;;;;;;1.67;1.00;;;;;20.32;48.82;31652.97;6368011;22;45350;-88
2023/05/23 17:20:06;;;;;;;;;1.00;1.00;;;;;20.84;49.28;31834.28;6338936;22;45561;-87
2023/05/23 17:22:31;;;;;;;;;1.00;1.00;;;;;20.62;49.14;31952.03;6338961;22;47636;-88
2023/05/23 17:24:58;;;;;;;;;1.00;1.00;;;;;20.51;48.81;32384.84;6340204;22;45660;-88
2023/05/23 17:27:24;;;;;;;;;1.00;1.00;;;;;20.60;49.35;32382.41;6368173;22;45469;-88
2023/05/23 17:29:49;;;;;;;;;1.00;1.00;;;;;20.80;49.55;32470.75;6366145;22;45520;-88
2023/05/23 17:32:14;;;;;;;;;1.00;1.00;;;;;20.14;49.42;32595.25;6335969;22;48598;-88
2023/05/23 17:34:40;;;;;;;;;0.33;0.33;;;;;20.52;49.12;32699.53;6367592;22;45388;-88
2023/05/23 17:37:07;;;;;;;;;1.00;1.00;;;;;20.49;49.08;33094.41;6338330;22;45440;-89
2023/05/23 17:39:32;;;;;;;;;2.00;2.00;;;;;19.91;49.06;32914.72;6339301;22;45349;-89
2023/05/23 17:41:57;;;;;;;;;2.00;1.00;;;;;20.58;49.03;32759.28;6338463;22;47017;-89
2023/05/23 17:44:23;;;;;;;;;1.00;1.00;;;;;20.44;49.42;32878.75;6339693;22;45495;-89
2023/05/23 17:46:48;;;;;;;;;1.67;1.67;;;;;20.59;48.90;33100.38;6367972;22;45411;-88
2023/05/23 17:49:13;;;;;;;;;1.00;1.00;;;;;20.52;49.46;33066.91;6367578;22;45270;-89
2023/05/23 17:51:39;;;;;;;;;0.00;0.00;;;;;20.50;49.57;33185.50;6367458;22;45445;-89
2023/05/23 17:54:04;;;;;;;;;0.00;0.00;;;;;20.48;49.43;33189.63;6339932;22;45341;-89
2023/05/23 17:56:29;;;;;;;;;1.00;1.00;;;;;20.44;49.33;33909.31;6339741;22;45368;-89
2023/05/23 17:58:55;;;;;;;;;0.00;0.00;;;;;20.58;49.43;33682.91;6339114;22;45392;-88
2023/05/23 18:01:23;;;;;;;;;1.00;1.00;;;;;20.41;49.36;33688.88;6365858;22;46114;-92
2023/05/23 18:03:48;;;;;;;;;1.33;1.33;;;;;20.42;49.55;33966.66;6368651;22;45345;-92
2023/05/23 18:06:13;;;;;;;;;1.00;1.00;;;;;20.64;49.24;34357.72;6367850;22;45855;-90
2023/05/23 18:08:40;;;;;;;;;0.67;0.67;;;;;20.65;49.42;34515.50;6366594;22;45607;-91
2023/05/23 18:11:05;;;;;;;;;1.33;0.00;;;;;20.50;48.87;34525.16;6367938;22;46555;-91
2023/05/23 18:13:30;;;;;;;;;2.33;1.00;;;;;20.43;48.79;34776.75;6339583;22;45620;-90
2023/05/23 18:15:56;;;;;;;;;0.00;0.00;;;;;20.61;49.59;34955.22;6368095;22;45332;-92
2023/05/23 18:18:22;;;;;;;;;0.00;0.00;;;;;20.54;49.44;35076.00;6368489;22;45449;-89
2023/05/23 18:20:47;;;;;;;;;1.00;1.00;;;;;20.43;49.12;35370.66;6367110;22;45499;-89
2023/05/23 18:23:12;;;;;;;;;0.67;0.00;;;;;20.42;49.36;35361.72;6367780;22;45355;-89
2023/05/23 18:25:38;;;;;;;;;2.00;2.00;;;;;20.46;48.98;35630.63;6338899;22;45330;-90
2023/05/23 18:28:03;;;;;;;;;1.00;1.00;;;;;20.55;49.07;35716.28;6367638;22;45372;-91
2023/05/23 18:30:29;;;;;;;;;0.33;0.33;;;;;20.37;49.41;35907.19;6367371;22;45349;-90
2023/05/23 18:32:55;;;;;;;;;1.00;1.00;;;;;20.52;49.13;36206.94;6367015;22;45365;-90
2023/05/23 18:35:21;;;;;;;;;0.67;0.67;;;;;20.52;49.33;36351.13;6368187;22;45381;-90
2023/05/23 18:37:47;;;;;;;;;0.33;0.33;;;;;20.51;49.45;36400.78;6339135;22;45517;-89
2023/05/23 18:40:13;;;;;;;;;1.00;1.00;;;;;20.51;48.92;36923.06;6368478;22;45761;-89
2023/05/23 18:42:39;;;;;;;;;1.00;1.00;;;;;20.15;48.99;37248.88;6336517;22;45733;-89
2023/05/23 18:45:05;;;;;;;;;1.00;1.00;;;;;20.48;49.02;37545.00;6366925;22;45326;-85
2023/05/23 18:47:31;;;;;;;;;0.00;0.00;;;;;20.27;48.76;38034.84;6360542;22;45357;-88
2023/05/23 18:49:57;;;;;;;;;1.00;1.00;;;;;19.67;48.30;38535.28;6363298;22;45305;-90
2023/05/23 18:52:22;;;;;;;;;1.00;1.00;;;;;20.37;48.53;39259.72;6337495;22;45815;-90
2023/05/23 18:54:54;;;;;;;;;0.33;0.33;;;;;20.01;48.00;39810.84;6324319;22;45691;-88
2023/05/23 18:59:54;;;;;;;;;0.00;0.00;;;;;19.94;48.23;40844.78;6361814;22;46341;-92
2023/05/23 19:02:20;;;;;;;;;0.00;0.00;;;;;20.03;48.21;41171.16;6337398;22;45302;-94
2023/05/23 19:04:50;;;;;;;;;0.33;0.33;;;;;19.24;48.04;41463.41;6363093;22;45291;-96
2023/05/23 19:09:50;;;;;;;;;1.00;0.00;;;;;20.27;47.77;42279.13;6356027;22;45625;-85
2023/05/23 19:12:16;;;;;;;;;0.33;0.33;;;;;20.03;48.14;42600.22;6365484;22;45864;-86
2023/05/23 19:14:41;;;;;;;;;0.33;0.00;;;;;19.79;47.93;43081.41;6349403;22;45612;-95
2023/05/23 19:17:08;;;;;;;;;2.00;0.00;;;;;19.54;47.61;43182.28;6341114;22;45812;-93
2023/05/23 19:19:33;;;;;;;;;1.33;1.00;;;;;19.40;47.95;43436.16;6365500;22;46312;-92
2023/05/23 19:21:59;;;;;;;;;0.00;0.00;;;;;19.76;47.96;43913.63;6338075;22;45747;-91
2023/05/23 19:24:26;;;;;;;;;0.33;0.33;;;;;19.53;48.05;44056.09;6339366;22;45356;-92
2023/05/23 19:26:51;;;;;;;;;0.00;0.00;;;;;19.12;48.19;44346.97;6339028;22;45310;-92
2023/05/23 19:29:17;;;;;;;;;0.00;0.00;;;;;19.47;48.04;44416.59;6337811;22;47291;-91
2023/05/23 19:31:42;;;;;;;;;0.33;0.33;;;;;19.97;48.22;44543.03;6338727;22;45591;-92
2023/05/23 19:34:07;;;;;;;;;1.00;0.00;;;;;19.87;47.82;44753.91;6365022;22;45394;-90
2023/05/23 19:36:34;;;;;;;;;1.00;1.00;;;;;19.45;48.00;45020.13;6337792;22;45338;-90
2023/05/23 19:39:00;;;;;;;;;0.00;0.00;;;;;19.32;48.24;45186.13;6365609;22;45736;-91
2023/05/23 19:41:25;;;;;;;;;0.00;0.00;;;;;19.29;48.40;45175.75;6337109;22;45453;-88
2023/05/23 19:43:51;;;;;;;;;1.00;1.00;;;;;19.78;48.42;45333.59;6366158;22;45369;-89
2023/05/23 19:46:16;;;;;;;;;0.00;0.00;;;;;19.37;48.27;45458.94;6366408;22;45437;-90
2023/05/23 19:48:42;;;;;;;;;0.00;0.00;;;;;19.42;48.22;45630.91;6364192;22;46016;-89
2023/05/23 19:51:07;;;;;;;;;0.00;0.00;;;;;19.69;48.19;45697.56;6366190;22;45427;-91
2023/05/23 19:53:33;;;;;;;;;2.00;1.00;;;;;19.42;48.88;45790.47;6366996;22;45365;-92
2023/05/23 19:56:01;;;;;;;;;0.00;0.00;;;;;19.32;48.81;45969.84;6337659;22;45323;-92
2023/05/23 19:58:27;;;;;;;;;0.00;0.00;;;;;19.28;48.59;45926.59;6337964;22;46151;-93
2023/05/23 20:00:53;;;;;;;;;0.00;0.00;;;;;19.37;48.68;45936.16;6337875;22;45785;-92